KNCA

New River MCAS / H / / McCutcheon Field / Airport

Jacksonville, North Carolina, USA
METAR KNCA 231456Z 27010KT 10SM SCT028 27/22 A3008 RMK AO2 SLP187 T02720217 58003
Observed Flight Rules
May-23 @ 14:56 UTC (15 minutes ago) Visual Flight Rules
Wind Visibility Clouds
270° at 10 knots 10 miles
  • Scattered at 2,800' AGL
Temperatures Readings
Current 27°C / 81°F
Dewpoint 22°C / 72°F
Humidity 74%
Altimeter 30.08" Hg
Pressure 1018.7 hPa
Elevation 8
METAR KNCA 231456Z 27010KT 10SM SCT028 27/22 A3008 RMK AO2 SLP187 T02720217 58003
Observed Flight Rules
May-23 @ 14:56 UTC
(15 minutes ago)
VFR
Wind Visibility
270° at 10 knots 10 miles
Clouds
  • Scattered at 2,800' AGL
Temperature Dewpoint
27°C / 81°F 22°C / 72°F
Humidity Altimeter Pressure
74% 30.08" Hg 1018.7 hPa